Terminal Aerodrome Forecast
Issued by NWS

Home | Current Version | Previous Version | Text Only | Print | Product List | Glossary On
Versions: 1 2 3 4 5 6 7 8 9 10 11 12 13 14 15 16 17
153
FTUS44 KSJT 311906 AAA
TAFJCT
TAF AMD
KJCT 311906Z 3119/0118 17008KT P6SM VCTS BKN040CB BKN250
      TEMPO 3119/3120 1SM TSRA SCT025CB
     FM010500 10006KT P6SM VCSH BKN050
     FM010700 13004KT P6SM VCSH BKN015=

USA.gov is the U.S. government's official web portal to all federal, state and local government web resources and services.